KBWD

Brownwood Regional Airport

Brownwood, Texas, USA
METAR KBWD 151855Z AUTO 02006KT 10SM CLR 12/M05 A3030 RMK AO2
Observed Flight Rules
Dec-15 @ 18:55 UTC (43 minutes ago) Visual Flight Rules
Wind Visibility Clouds
20° at 6 knots 10 miles
  • Clear skies
Temperatures Readings
Current 12°C / 54°F
Dewpoint -5°C / 23°F
Humidity 30%
Altimeter 30.3" Hg
Pressure 1026 hPa
Elevation 423
METAR KBWD 151855Z AUTO 02006KT 10SM CLR 12/M05 A3030 RMK AO2
Observed Flight Rules
Dec-15 @ 18:55 UTC
(43 minutes ago)
VFR
Wind Visibility
20° at 6 knots 10 miles
Clouds
  • Clear skies
Temperature Dewpoint
12°C / 54°F -5°C / 23°F
Humidity Altimeter Pressure
30% 30.3" Hg 1026 hPa